Time;durP1;ratioP1;P1;durP2;ratioP2;P2;SDS_P1;SDS_P2;PMS_P1;PMS_P2;Temp;Humidity;BMP_temperature;BMP_pressure;BME280_temperature;BME280_humidity;BME280_pressure;Samples;Min_cycle;Max_cycle;Signal;HPM_P1;HPM_P2
2023/12/17 00:01:17;;;;;;;20.50;13.10;;;;;;;1.57;100.00;100918.89;105820;1257;72598;-78
2023/12/17 00:03:45;;;;;;;20.70;13.10;;;;;;;1.56;100.00;100918.27;106057;1257;61963;-77
2023/12/17 00:06:13;;;;;;;21.10;12.20;;;;;;;1.57;100.00;100919.08;108866;1254;59128;-79
2023/12/17 00:08:40;;;;;;;22.80;13.00;;;;;;;1.57;100.00;100918.72;108615;1258;72657;-77
2023/12/17 00:11:08;;;;;;;21.10;12.70;;;;;;;1.55;100.00;100915.17;105924;1254;70181;-79
2023/12/17 00:13:36;;;;;;;21.00;12.90;;;;;;;1.56;100.00;100908.81;105953;1258;155062;-80
2023/12/17 00:18:53;;;;;;;22.40;13.70;;;;;;;1.58;100.00;100907.33;102593;1294;600841;-78
2023/12/17 00:21:21;;;;;;;20.70;13.70;;;;;;;1.56;100.00;100907.77;105489;1260;60271;-81
2023/12/17 00:23:48;;;;;;;18.60;14.30;;;;;;;1.60;100.00;100905.48;105664;1263;59273;-78
2023/12/17 00:26:16;;;;;;;20.20;14.10;;;;;;;1.60;100.00;100905.13;105433;1260;71005;-79
2023/12/17 00:28:44;;;;;;;19.60;13.50;;;;;;;1.55;100.00;100900.31;105493;1265;68700;-76
2023/12/17 00:31:11;;;;;;;21.60;14.60;;;;;;;1.54;100.00;100902.80;105227;1263;72725;-76
2023/12/17 00:33:39;;;;;;;22.80;13.70;;;;;;;1.56;100.00;100897.63;105369;1256;189873;-79
2023/12/17 00:36:07;;;;;;;19.00;13.40;;;;;;;1.57;100.00;100900.73;105579;1257;59340;-78
2023/12/17 00:38:35;;;;;;;22.90;14.10;;;;;;;1.52;100.00;100892.77;105682;1256;72018;-79
2023/12/17 00:41:02;;;;;;;21.90;14.20;;;;;;;1.52;100.00;100886.54;105727;1257;70096;-78
2023/12/17 00:43:30;;;;;;;22.90;14.20;;;;;;;1.54;100.00;100883.05;105734;1260;72711;-78
2023/12/17 00:45:58;;;;;;;26.50;15.80;;;;;;;1.57;100.00;100875.25;106236;1257;60216;-80
2023/12/17 00:48:25;;;;;;;22.50;15.30;;;;;;;1.52;100.00;100869.77;105994;1262;59953;-79
2023/12/17 00:50:53;;;;;;;20.30;13.90;;;;;;;1.52;100.00;100862.91;105540;1265;73067;-80
2023/12/17 00:53:21;;;;;;;17.50;14.30;;;;;;;1.56;100.00;100863.60;105687;1262;69129;-80
2023/12/17 00:55:48;;;;;;;22.40;14.10;;;;;;;1.55;100.00;100868.86;105686;1257;72705;-81
2023/12/17 00:58:16;;;;;;;23.90;15.90;;;;;;;1.53;100.00;100863.02;105636;1257;61824;-80
2023/12/17 01:00:43;;;;;;;25.70;16.50;;;;;;;1.56;100.00;100860.64;107798;1256;59619;-79
2023/12/17 01:03:22;;;;;;;22.80;16.10;;;;;;;1.59;100.00;100856.45;108806;1256;72425;-79
2023/12/17 01:05:49;;;;;;;24.90;15.50;;;;;;;1.61;100.00;100857.06;106609;1257;68887;-79
2023/12/17 01:08:17;;;;;;;22.60;15.30;;;;;;;1.56;100.00;100855.71;107686;1256;71438;-78
2023/12/17 01:10:45;;;;;;;22.40;14.00;;;;;;;1.59;100.00;100850.85;107389;1257;59706;-81
2023/12/17 01:13:12;;;;;;;22.60;15.10;;;;;;;1.65;100.00;100845.67;105554;1259;59602;-80
2023/12/17 01:15:40;;;;;;;26.80;15.00;;;;;;;1.62;100.00;100848.05;105594;1257;73155;-79
2023/12/17 01:18:08;;;;;;;23.00;15.60;;;;;;;1.66;100.00;100845.42;105893;1257;71028;-76
2023/12/17 01:20:36;;;;;;;25.10;15.40;;;;;;;1.66;100.00;100847.16;105670;1260;71063;-78
2023/12/17 01:23:03;;;;;;;26.90;17.50;;;;;;;1.59;100.00;100844.05;105577;1257;60415;-78
2023/12/17 01:25:31;;;;;;;26.50;16.90;;;;;;;1.57;100.00;100843.98;105473;1258;60224;-81
2023/12/17 01:27:58;;;;;;;25.50;16.80;;;;;;;1.57;100.00;100837.66;105647;1263;73768;-81
2023/12/17 01:30:26;;;;;;;27.90;16.80;;;;;;;1.57;100.00;100840.48;105589;1262;69422;-81
2023/12/17 01:32:54;;;;;;;26.80;17.20;;;;;;;1.50;100.00;100839.67;106066;1258;72755;-82
2023/12/17 01:35:22;;;;;;;24.40;16.30;;;;;;;1.48;100.00;100839.57;106215;1259;59174;-82
2023/12/17 01:37:50;;;;;;;25.00;15.50;;;;;;;1.53;100.00;100835.64;105820;1257;59670;-82
2023/12/17 01:40:17;;;;;;;26.50;17.30;;;;;;;1.54;100.00;100828.08;106412;1260;71768;-83
2023/12/17 01:42:45;;;;;;;24.40;17.10;;;;;;;1.51;100.00;100832.27;106963;1257;70326;-81
2023/12/17 01:45:12;;;;;;;28.80;17.20;;;;;;;1.50;100.00;100834.42;108734;1259;71439;-81
2023/12/17 01:47:40;;;;;;;29.10;16.00;;;;;;;1.53;100.00;100836.33;107924;1261;59623;-81
2023/12/17 01:50:08;;;;;;;25.80;17.20;;;;;;;1.56;100.00;100835.83;106860;1257;59572;-79
2023/12/17 01:52:38;;;;;;;24.90;17.10;;;;;;;1.53;100.00;100829.66;106206;1258;75349;-82
2023/12/17 01:55:06;;;;;;;29.30;17.60;;;;;;;1.54;100.00;100825.48;106886;1259;72093;-83
2023/12/17 01:57:34;;;;;;;29.80;18.80;;;;;;;1.58;100.00;100824.55;109004;1257;73721;-83
2023/12/17 02:00:03;;;;;;;24.70;17.10;;;;;;;1.62;100.00;100820.50;108506;1259;59335;-83
2023/12/17 02:02:31;;;;;;;25.70;17.10;;;;;;;1.59;100.00;100815.58;107175;1257;59544;-83
2023/12/17 02:05:02;;;;;;;27.50;18.00;;;;;;;1.58;100.00;100817.56;107207;1258;71803;-81
2023/12/17 02:07:34;;;;;;;27.00;17.40;;;;;;;1.63;100.00;100812.22;105726;1258;69068;-84
2023/12/17 02:10:02;;;;;;;24.40;16.60;;;;;;;1.67;100.00;100812.36;105653;1262;73178;-83
2023/12/17 02:12:30;;;;;;;29.90;18.30;;;;;;;1.63;100.00;100809.10;105721;1258;59552;-84
2023/12/17 02:14:58;;;;;;;25.90;15.90;;;;;;;1.59;100.00;100806.18;105845;1258;59688;-83
2023/12/17 02:17:27;;;;;;;27.90;16.90;;;;;;;1.64;100.00;100800.50;105874;1260;71131;-85
2023/12/17 02:19:56;;;;;;;24.60;15.70;;;;;;;1.69;100.00;100798.45;107011;1259;70705;-81
2023/12/17 02:22:24;;;;;;;25.10;15.70;;;;;;;1.63;100.00;100795.51;108346;1258;74085;-82
2023/12/17 02:24:52;;;;;;;26.00;17.00;;;;;;;1.62;100.00;100792.23;107844;1258;60179;-83
2023/12/17 02:27:21;;;;;;;26.50;17.10;;;;;;;1.65;100.00;100792.36;106791;1263;59118;-83
2023/12/17 02:29:49;;;;;;;20.90;15.40;;;;;;;1.68;100.00;100792.91;106137;1260;71800;-84
2023/12/17 02:32:17;;;;;;;29.50;17.70;;;;;;;1.64;100.00;100792.11;107077;1259;69136;-85
2023/12/17 02:34:45;;;;;;;22.90;16.60;;;;;;;1.59;100.00;100781.36;106661;1260;71469;-84
2023/12/17 02:37:13;;;;;;;23.50;16.50;;;;;;;1.63;100.00;100775.04;106137;1259;61143;-83
2023/12/17 02:39:41;;;;;;;24.60;16.10;;;;;;;1.65;100.00;100773.86;107231;1258;59254;-84
2023/12/17 02:42:08;;;;;;;23.90;16.70;;;;;;;1.63;100.00;100769.27;106436;1259;71801;-80
2023/12/17 02:44:36;;;;;;;23.50;15.20;;;;;;;1.64;100.00;100769.37;107260;1258;68367;-81
2023/12/17 02:47:04;;;;;;;22.80;16.00;;;;;;;1.66;100.00;100762.27;106154;1259;72666;-80
2023/12/17 02:49:33;;;;;;;24.90;16.90;;;;;;;1.67;100.00;100757.36;105883;1262;59606;-81
2023/12/17 02:52:01;;;;;;;24.30;16.10;;;;;;;1.60;100.00;100757.04;108774;1256;60021;-83
2023/12/17 02:54:29;;;;;;;26.50;16.70;;;;;;;1.60;100.00;100757.41;109143;1256;71822;-80
2023/12/17 02:56:57;;;;;;;27.00;17.90;;;;;;;1.63;100.00;100751.45;108774;1256;70207;-81
2023/12/17 02:59:25;;;;;;;24.60;15.70;;;;;;;1.66;100.00;100753.94;108695;1256;71362;-80
2023/12/17 03:01:52;;;;;;;26.40;16.70;;;;;;;1.68;100.00;100764.30;108399;1256;58780;-81
2023/12/17 03:04:20;;;;;;;27.50;17.20;;;;;;;1.63;100.00;100759.83;108443;1256;60003;-82
2023/12/17 03:06:48;;;;;;;28.10;17.30;;;;;;;1.64;100.00;100762.23;108179;1256;74084;-81
2023/12/17 03:09:16;;;;;;;22.80;16.40;;;;;;;1.68;100.00;100761.30;106675;1257;70187;-82
2023/12/17 03:11:44;;;;;;;27.20;17.20;;;;;;;1.69;100.00;100755.16;106375;1256;71292;-81
2023/12/17 03:14:11;;;;;;;28.30;19.00;;;;;;;1.68;100.00;100748.94;106266;1256;59626;-83
2023/12/17 03:16:39;;;;;;;28.80;17.30;;;;;;;1.60;100.00;100739.23;106089;1256;59632;-82
2023/12/17 03:19:07;;;;;;;29.00;18.20;;;;;;;1.59;100.00;100734.40;105975;1263;71698;-80
2023/12/17 03:21:34;;;;;;;25.80;16.70;;;;;;;1.59;100.00;100731.05;105723;1257;70350;-81
2023/12/17 03:24:02;;;;;;;25.80;17.00;;;;;;;1.57;100.00;100722.80;106529;1256;72712;-83
2023/12/17 03:26:30;;;;;;;28.20;16.80;;;;;;;1.55;100.00;100723.08;106530;1260;60464;-80
2023/12/17 03:28:58;;;;;;;29.40;17.70;;;;;;;1.51;100.00;100717.73;105752;1257;60127;-81
2023/12/17 03:31:25;;;;;;;27.40;16.30;;;;;;;1.50;100.00;100710.66;106015;1260;72960;-81
2023/12/17 03:33:53;;;;;;;29.70;19.20;;;;;;;1.51;100.00;100709.73;106254;1260;69281;-79
2023/12/17 03:36:21;;;;;;;28.40;18.10;;;;;;;1.51;100.00;100715.27;105610;1256;71184;-81
2023/12/17 03:38:48;;;;;;;28.90;17.60;;;;;;;1.49;100.00;100709.45;105743;1257;61768;-79
2023/12/17 03:41:26;;;;;;;28.40;17.30;;;;;;;1.47;100.00;100702.41;105792;1257;62387;-82
2023/12/17 03:43:54;;;;;;;29.10;18.40;;;;;;;1.49;100.00;100700.41;105819;1256;73105;-82
2023/12/17 03:46:23;;;;;;;30.50;17.70;;;;;;;1.50;100.00;100699.13;107458;1255;70476;-81
2023/12/17 03:48:50;;;;;;;26.60;17.00;;;;;;;1.51;100.00;100692.73;109213;1255;71379;-82
2023/12/17 03:51:19;;;;;;;28.00;17.80;;;;;;;1.48;100.00;100694.30;107552;1257;60822;-80
2023/12/17 03:53:46;;;;;;;25.60;16.80;;;;;;;1.49;100.00;100685.73;106422;1256;60024;-81
2023/12/17 03:56:15;;;;;;;26.20;17.40;;;;;;;1.50;100.00;100677.98;106744;1262;73324;-79
2023/12/17 03:58:43;;;;;;;26.70;15.80;;;;;;;1.49;100.00;100679.44;107188;1256;68735;-79
2023/12/17 04:01:11;;;;;;;26.30;16.70;;;;;;;1.46;100.00;100673.30;105874;1262;71765;-81
2023/12/17 04:03:39;;;;;;;24.10;15.80;;;;;;;1.45;100.00;100667.27;105707;1255;59746;-82
2023/12/17 04:06:07;;;;;;;25.70;15.90;;;;;;;1.44;100.00;100663.64;106239;1256;59785;-79
2023/12/17 04:08:35;;;;;;;26.10;16.30;;;;;;;1.45;100.00;100666.23;106423;1261;71777;-79
2023/12/17 04:11:03;;;;;;;25.30;17.10;;;;;;;1.45;100.00;100662.94;106135;1257;69944;-82
2023/12/17 04:13:31;;;;;;;29.50;20.10;;;;;;;1.46;100.00;100657.64;106153;1259;73501;-83
2023/12/17 04:15:59;;;;;;;26.00;17.80;;;;;;;1.46;100.00;100652.36;106284;1257;60179;-84
2023/12/17 04:18:26;;;;;;;28.10;19.10;;;;;;;1.42;100.00;100646.85;106692;1256;59536;-80
2023/12/17 04:20:54;;;;;;;25.90;16.20;;;;;;;1.45;100.00;100641.61;109009;1256;72044;-80
2023/12/17 04:23:22;;;;;;;26.00;17.20;;;;;;;1.50;100.00;100634.52;105892;1256;69102;-81
2023/12/17 04:25:50;;;;;;;24.50;16.90;;;;;;;1.52;100.00;100628.63;105602;1257;71122;-82
2023/12/17 04:28:17;;;;;;;25.70;16.80;;;;;;;1.52;100.00;100617.45;106086;1264;60508;-81
2023/12/17 04:30:45;;;;;;;24.20;17.20;;;;;;;1.51;100.00;100608.96;106116;1256;60613;-80
2023/12/17 04:33:13;;;;;;;22.30;16.10;;;;;;;1.51;100.00;100603.05;105933;1256;73798;-80
2023/12/17 04:35:41;;;;;;;22.80;15.30;;;;;;;1.47;100.00;100598.91;105896;1260;69947;-78
2023/12/17 04:38:08;;;;;;;24.20;16.20;;;;;;;1.43;100.00;100597.91;106205;1256;72738;-79
2023/12/17 04:40:36;;;;;;;22.30;15.60;;;;;;;1.48;100.00;100590.84;106745;1256;60941;-77
2023/12/17 04:43:04;;;;;;;22.40;15.50;;;;;;;1.49;100.00;100593.35;109217;1256;58776;-78
2023/12/17 04:45:32;;;;;;;23.50;16.60;;;;;;;1.52;100.00;100587.95;108646;1256;74643;-78
2023/12/17 04:48:01;;;;;;;21.80;15.40;;;;;;;1.55;100.00;100584.45;107498;1260;70329;-77
2023/12/17 04:50:29;;;;;;;19.20;14.70;;;;;;;1.53;100.00;100581.77;106718;1260;71438;-76
2023/12/17 04:52:57;;;;;;;21.70;15.70;;;;;;;1.55;100.00;100583.06;106550;1256;60951;-80
2023/12/17 04:55:25;;;;;;;23.50;15.70;;;;;;;1.60;100.00;100581.05;106388;1260;60431;-78
2023/12/17 04:57:53;;;;;;;21.80;15.10;;;;;;;1.61;100.00;100572.92;106326;1261;72700;-79
2023/12/17 05:00:20;;;;;;;22.30;14.70;;;;;;;1.61;100.00;100575.88;106124;1256;69021;-78
2023/12/17 05:02:48;;;;;;;22.60;16.00;;;;;;;1.55;100.00;100572.21;106046;1262;71332;-81
2023/12/17 05:05:16;;;;;;;19.00;13.00;;;;;;;1.55;100.00;100572.25;105956;1259;60489;-78
2023/12/17 05:07:45;;;;;;;24.30;15.70;;;;;;;1.59;100.00;100569.39;106030;1262;60458;-82
2023/12/17 05:10:12;;;;;;;24.10;16.40;;;;;;;1.59;100.00;100568.52;105912;1256;72542;-80
2023/12/17 05:12:40;;;;;;;21.80;15.30;;;;;;;1.54;100.00;100574.89;105860;1256;68833;-82
2023/12/17 05:15:08;;;;;;;25.50;15.90;;;;;;;1.56;100.00;100575.46;106014;1260;75042;-82
2023/12/17 05:17:36;;;;;;;22.30;14.60;;;;;;;1.59;100.00;100571.69;105912;1256;61700;-83
2023/12/17 05:20:05;;;;;;;21.80;15.00;;;;;;;1.58;100.00;100575.56;105778;1256;62103;-84
2023/12/17 05:22:32;;;;;;;25.70;16.20;;;;;;;1.59;100.00;100579.56;105909;1256;72662;-82
2023/12/17 05:25:00;;;;;;;25.70;16.30;;;;;;;1.55;100.00;100572.95;106879;1260;70162;-81
2023/12/17 05:27:28;;;;;;;24.80;16.20;;;;;;;1.56;100.00;100570.92;105867;1256;71634;-84
2023/12/17 05:29:56;;;;;;;26.00;16.60;;;;;;;1.58;100.00;100571.38;105798;1257;60885;-83
2023/12/17 05:32:24;;;;;;;24.00;17.10;;;;;;;1.58;100.00;100574.48;106415;1256;60835;-83
2023/12/17 05:34:51;;;;;;;23.20;14.50;;;;;;;1.60;100.00;100576.32;106889;1260;73098;-83
2023/12/17 05:37:19;;;;;;;26.90;17.40;;;;;;;1.62;100.00;100575.88;107663;1257;70298;-82
2023/12/17 05:39:46;;;;;;;22.00;15.30;;;;;;;1.62;100.00;100574.25;108788;1255;72213;-83
2023/12/17 05:42:14;;;;;;;25.50;16.20;;;;;;;1.65;100.00;100571.34;107526;1257;60381;-81
2023/12/17 05:44:42;;;;;;;26.20;17.80;;;;;;;1.67;100.00;100571.86;106742;1257;60516;-81
2023/12/17 05:47:10;;;;;;;26.90;17.20;;;;;;;1.64;100.00;100566.33;106227;1257;72822;-80
2023/12/17 05:49:38;;;;;;;26.00;16.80;;;;;;;1.61;100.00;100561.77;106434;1257;69168;-79
2023/12/17 05:52:07;;;;;;;26.70;17.10;;;;;;;1.64;100.00;100565.25;106286;1256;71645;-80
2023/12/17 05:54:35;;;;;;;33.90;18.40;;;;;;;1.68;100.00;100570.44;107127;1256;61665;-79
2023/12/17 05:57:03;;;;;;;29.50;17.70;;;;;;;1.68;100.00;100569.58;106717;1256;60630;-80
2023/12/17 05:59:30;;;;;;;33.60;18.50;;;;;;;1.70;100.00;100566.66;105925;1256;73885;-80
2023/12/17 06:01:59;;;;;;;26.20;18.50;;;;;;;1.66;100.00;100566.37;105548;1257;68762;-76
2023/12/17 06:04:27;;;;;;;27.30;18.00;;;;;;;1.69;100.00;100565.29;105577;1257;71398;-74
2023/12/17 06:06:55;;;;;;;28.70;18.20;;;;;;;1.75;100.00;100568.42;105572;1257;61707;-77
2023/12/17 06:09:23;;;;;;;30.40;19.40;;;;;;;1.77;100.00;100561.65;105670;1257;62146;-72
2023/12/17 06:11:51;;;;;;;24.60;17.20;;;;;;;1.76;100.00;100554.91;105550;1257;75845;-74
2023/12/17 06:14:19;;;;;;;28.70;17.00;;;;;;;1.77;100.00;100553.81;105680;1256;70352;-74
2023/12/17 06:16:47;;;;;;;24.40;16.00;;;;;;;1.80;100.00;100553.30;105613;1257;72617;-77
2023/12/17 06:19:14;;;;;;;28.40;18.80;;;;;;;1.81;100.00;100549.40;105723;1260;60443;-76
2023/12/17 06:21:42;;;;;;;28.50;18.90;;;;;;;1.78;100.00;100557.80;105736;1262;60954;-80
2023/12/17 06:24:10;;;;;;;25.20;18.40;;;;;;;1.73;100.00;100550.71;105964;1257;73948;-78
2023/12/17 06:26:38;;;;;;;30.30;18.80;;;;;;;1.76;100.00;100552.11;105924;1262;69816;-81
2023/12/17 06:29:12;;;;;;;30.10;18.40;;;;;;;1.78;100.00;100545.52;105968;1255;72770;-78
2023/12/17 06:31:41;;;;;;;26.90;17.80;;;;;;;1.80;100.00;100543.34;107745;1254;61704;-77
2023/12/17 06:34:09;;;;;;;30.80;17.90;;;;;;;1.80;100.00;100540.20;108900;1256;59203;-76
2023/12/17 06:36:36;;;;;;;26.80;18.00;;;;;;;1.82;100.00;100528.20;106867;1256;73895;-79
2023/12/17 06:39:09;;;;;;;26.70;17.80;;;;;;;1.86;100.00;100528.80;106049;1257;70342;-77
2023/12/17 06:41:43;;;;;;;27.70;18.70;;;;;;;1.84;100.00;100534.39;105778;1257;71896;-77
2023/12/17 06:44:11;;;;;;;26.80;18.00;;;;;;;1.84;100.00;100526.70;105644;1262;60412;-80
2023/12/17 06:46:39;;;;;;;25.80;19.10;;;;;;;1.87;100.00;100530.38;105712;1259;60436;-79
2023/12/17 06:49:07;;;;;;;26.00;17.20;;;;;;;1.85;100.00;100523.31;105935;1256;71607;-76
2023/12/17 06:51:38;;;;;;;28.90;18.80;;;;;;;1.85;100.00;100531.73;106121;1257;69939;-80
2023/12/17 06:54:07;;;;;;;25.00;16.80;;;;;;;1.83;100.00;100536.16;105555;1257;71077;-78
2023/12/17 06:56:35;;;;;;;24.50;16.20;;;;;;;1.82;100.00;100536.75;105658;1257;60533;-80
2023/12/17 06:59:03;;;;;;;26.90;17.80;;;;;;;1.80;100.00;100532.17;105658;1257;60419;-78
2023/12/17 07:01:31;;;;;;;24.80;16.60;;;;;;;1.82;100.00;100533.11;105733;1262;72576;-78
2023/12/17 07:03:59;;;;;;;35.10;22.90;;;;;;;1.82;100.00;100533.30;106295;1257;70609;-82
2023/12/17 07:06:27;;;;;;;30.70;19.80;;;;;;;1.82;100.00;100527.88;107966;1257;71074;-79
2023/12/17 07:08:55;;;;;;;27.50;17.50;;;;;;;1.77;100.00;100527.27;106835;1256;60517;-79
2023/12/17 07:11:23;;;;;;;18.80;12.50;;;;;;;1.75;100.00;100522.99;105714;1256;60546;-79
2023/12/17 07:13:50;;;;;;;16.70;13.10;;;;;;;1.81;100.00;100528.45;105803;1256;73882;-78
2023/12/17 07:16:22;;;;;;;17.70;12.90;;;;;;;1.83;100.00;100532.67;106232;1261;72136;-78
2023/12/17 07:18:50;;;;;;;21.50;13.90;;;;;;;1.84;100.00;100534.41;105896;1257;71421;-77
2023/12/17 07:21:18;;;;;;;21.00;12.90;;;;;;;1.85;100.00;100532.77;105701;1262;61631;-78
2023/12/17 07:23:46;;;;;;;19.60;13.20;;;;;;;1.85;100.00;100534.81;105724;1257;60438;-79
2023/12/17 07:26:14;;;;;;;20.20;13.60;;;;;;;1.86;100.00;100530.91;106828;1254;73826;-78
2023/12/17 07:28:42;;;;;;;17.30;12.40;;;;;;;1.87;100.00;100530.15;108580;1256;68748;-78
2023/12/17 07:31:10;;;;;;;18.80;13.20;;;;;;;1.90;100.00;100527.56;108734;1257;72780;-77
2023/12/17 07:33:37;;;;;;;21.80;15.20;;;;;;;1.91;100.00;100521.89;107832;1256;60582;-79
2023/12/17 07:36:05;;;;;;;20.70;15.50;;;;;;;1.91;100.00;100520.30;106411;1256;60446;-78
2023/12/17 07:38:34;;;;;;;20.90;14.70;;;;;;;1.91;100.00;100518.73;105820;1259;73884;-80
2023/12/17 07:41:01;;;;;;;18.30;12.10;;;;;;;1.91;100.00;100513.88;105883;1256;70381;-80
2023/12/17 07:43:30;;;;;;;19.60;13.20;;;;;;;1.89;100.00;100515.38;105590;1257;71110;-79
2023/12/17 07:45:57;;;;;;;20.00;13.70;;;;;;;1.90;100.00;100519.51;105625;1259;60852;-79
2023/12/17 07:48:25;;;;;;;18.20;13.90;;;;;;;1.92;100.00;100519.21;105652;1257;60938;-78
2023/12/17 07:50:54;;;;;;;18.90;14.70;;;;;;;1.90;100.00;100524.23;105703;1257;73878;-77
2023/12/17 07:53:22;;;;;;;18.80;13.30;;;;;;;1.88;100.00;100523.86;105738;1256;70245;-77
2023/12/17 07:55:56;;;;;;;19.40;13.50;;;;;;;1.90;100.00;100527.73;105606;1258;71397;-77
2023/12/17 07:58:25;;;;;;;18.00;13.30;;;;;;;1.94;100.00;100522.42;105640;1257;61686;-77
2023/12/17 08:00:52;;;;;;;17.70;13.60;;;;;;;1.96;100.00;100523.84;105687;1256;60751;-81
2023/12/17 08:03:22;;;;;;;17.80;13.40;;;;;;;2.00;100.00;100527.64;105582;1262;72596;-78
2023/12/17 08:05:51;;;;;;;18.20;13.50;;;;;;;1.98;100.00;100525.52;105621;1261;70130;-80
2023/12/17 08:08:21;;;;;;;20.20;13.30;;;;;;;2.00;100.00;100527.66;105632;1256;71606;-80
2023/12/17 08:10:48;;;;;;;17.40;13.00;;;;;;;2.04;100.00;100530.34;105592;1262;61080;-79
2023/12/17 08:13:16;;;;;;;17.80;12.40;;;;;;;2.08;100.00;100526.79;105879;1260;60552;-78
2023/12/17 08:15:45;;;;;;;18.60;13.20;;;;;;;2.12;100.00;100524.42;105734;1262;73940;-78
2023/12/17 08:18:15;;;;;;;19.00;12.90;;;;;;;2.18;100.00;100527.27;105647;1260;70344;-77
2023/12/17 08:20:43;;;;;;;14.50;11.70;;;;;;;2.17;100.00;100525.91;105852;1262;72629;-76
2023/12/17 08:23:10;;;;;;;17.30;12.50;;;;;;;2.21;100.00;100527.22;108865;1256;60487;-79
2023/12/17 08:25:38;;;;;;;14.90;11.30;;;;;;;2.29;100.00;100522.73;109189;1256;59248;-77
2023/12/17 08:28:06;;;;;;;20.30;11.70;;;;;;;2.34;100.00;100522.39;107009;1257;72794;-81
2023/12/17 08:30:39;;;;;;;15.30;11.60;;;;;;;2.33;100.00;100521.05;107226;1256;68765;-80
2023/12/17 08:33:07;;;;;;;14.80;11.30;;;;;;;2.35;100.00;100519.15;106739;1256;72655;-78
2023/12/17 08:35:37;;;;;;;18.10;11.90;;;;;;;2.40;100.00;100514.83;106419;1257;60559;-80
2023/12/17 08:38:08;;;;;;;16.20;11.50;;;;;;;2.42;100.00;100511.05;107298;1260;60361;-78
2023/12/17 08:40:37;;;;;;;13.60;10.50;;;;;;;2.38;100.00;100508.52;107306;1262;72578;-78
2023/12/17 08:43:06;;;;;;;16.30;10.30;;;;;;;2.36;100.00;100507.21;107883;1257;69998;-78
2023/12/17 08:45:35;;;;;;;12.90;10.30;;;;;;;2.37;100.00;100501.90;108328;1257;72043;-79
2023/12/17 08:48:04;;;;;;;17.30;11.80;;;;;;;2.38;100.00;100507.60;108128;1257;59870;-80
2023/12/17 08:50:33;;;;;;;14.90;10.40;;;;;;;2.32;100.00;100501.89;107934;1256;60385;-79
2023/12/17 08:53:01;;;;;;;12.70;9.10;;;;;;;2.33;100.00;100497.66;107811;1257;73157;-78
2023/12/17 08:55:30;;;;;;;11.70;9.40;;;;;;;2.35;100.00;100494.01;108105;1256;68763;-82
2023/12/17 08:57:58;;;;;;;13.90;9.80;;;;;;;2.35;100.00;100489.26;107243;1256;70504;-79
2023/12/17 09:00:26;;;;;;;13.70;10.70;;;;;;;2.36;100.00;100481.35;107269;1256;60555;-80
2023/12/17 09:02:54;;;;;;;17.20;11.80;;;;;;;2.35;100.00;100484.17;107362;1257;61178;-80
2023/12/17 09:05:22;;;;;;;12.00;10.10;;;;;;;2.34;100.00;100483.92;107633;1254;72664;-79
2023/12/17 09:07:49;;;;;;;10.80;9.10;;;;;;;2.33;100.00;100486.06;109138;1254;68926;-77
2023/12/17 09:10:19;;;;;;;13.90;10.60;;;;;;;2.27;100.00;100481.73;108807;1254;70506;-80
2023/12/17 09:12:50;;;;;;;16.90;12.10;;;;;;;2.30;100.00;100483.02;107820;1257;60404;-80
2023/12/17 09:15:17;;;;;;;14.50;9.80;;;;;;;2.31;100.00;100487.41;107323;1254;60451;-81
2023/12/17 09:17:45;;;;;;;13.80;9.70;;;;;;;2.35;100.00;100490.31;108754;1254;72571;-80
2023/12/17 09:20:16;;;;;;;13.10;10.00;;;;;;;2.32;100.00;100486.87;109358;1254;68874;-82
2023/12/17 09:22:44;;;;;;;12.80;9.60;;;;;;;2.34;100.00;100490.20;109426;1254;73283;-80
2023/12/17 09:25:12;;;;;;;11.40;9.10;;;;;;;2.36;100.00;100483.59;109344;1255;60423;-79
2023/12/17 09:27:40;;;;;;;16.40;10.80;;;;;;;2.37;100.00;100484.45;108984;1255;58866;-79
2023/12/17 09:30:10;;;;;;;12.20;8.60;;;;;;;2.33;100.00;100485.38;109006;1256;72613;-80
2023/12/17 09:32:39;;;;;;;12.30;9.20;;;;;;;2.39;100.00;100489.92;109342;1257;69200;-78
2023/12/17 09:35:10;;;;;;;12.50;9.50;;;;;;;2.40;100.00;100491.96;109333;1254;74040;-79
2023/12/17 09:37:40;;;;;;;12.00;8.80;;;;;;;2.33;100.00;100484.01;109140;1254;62489;-80
2023/12/17 09:40:08;;;;;;;13.70;9.90;;;;;;;2.37;100.00;100485.88;109138;1255;59146;-81
2023/12/17 09:42:40;;;;;;;10.60;9.00;;;;;;;2.43;100.00;100482.65;109090;1261;72662;-81
2023/12/17 09:45:09;;;;;;;13.70;9.70;;;;;;;2.46;100.00;100482.13;108884;1254;68205;-81
2023/12/17 09:47:37;;;;;;;10.80;9.50;;;;;;;2.44;100.00;100479.47;109298;1257;70437;-79
2023/12/17 09:50:08;;;;;;;11.70;9.20;;;;;;;2.50;100.00;100481.36;109198;1255;60427;-81
2023/12/17 09:52:42;;;;;;;10.40;8.60;;;;;;;2.55;100.00;100475.77;108786;1255;61127;-80
2023/12/17 09:55:10;;;;;;;13.10;9.70;;;;;;;2.51;100.00;100477.45;108910;1254;72899;-81
2023/12/17 09:57:37;;;;;;;10.50;8.10;;;;;;;2.50;100.00;100475.94;108881;1254;69222;-81
2023/12/17 10:00:11;;;;;;;11.60;8.80;;;;;;;2.58;100.00;100473.14;108954;1257;71410;-79
2023/12/17 10:02:40;;;;;;;;;;;;;;;2.59;100.00;100472.91;108996;1257;60448;-81
2023/12/17 10:05:08;;;;;;;11.20;8.80;;;;;;;2.53;100.00;100471.86;109354;1254;60849;-80
2023/12/17 10:07:37;;;;;;;12.50;8.20;;;;;;;2.55;100.00;100468.77;108966;1257;75073;-80
2023/12/17 10:10:07;;;;;;;11.70;8.90;;;;;;;2.61;100.00;100470.33;108354;1260;69311;-79
2023/12/17 10:12:35;;;;;;;9.30;7.40;;;;;;;2.59;100.00;100470.29;108525;1260;71631;-80
2023/12/17 10:15:05;;;;;;;10.30;8.20;;;;;;;2.54;100.00;100468.98;108721;1257;60535;-81
2023/12/17 10:17:33;;;;;;;10.50;7.30;;;;;;;2.60;100.00;100470.92;109338;1256;58954;-80
2023/12/17 10:20:03;;;;;;;10.40;7.70;;;;;;;2.65;100.00;100471.85;108878;1254;72356;-80
2023/12/17 10:22:31;;;;;;;10.10;8.40;;;;;;;2.60;100.00;100469.66;108585;1255;69001;-81
2023/12/17 10:25:00;;;;;;;9.40;6.90;;;;;;;2.62;100.00;100469.22;108885;1254;71940;-78
2023/12/17 10:27:28;;;;;;;9.80;8.00;;;;;;;2.66;100.00;100466.02;109073;1256;60460;-80
2023/12/17 10:29:56;;;;;;;9.40;7.60;;;;;;;2.62;100.00;100463.95;107592;1260;59330;-76
2023/12/17 10:32:24;;;;;;;9.90;7.40;;;;;;;2.62;100.00;100462.24;105875;1260;72824;-79
2023/12/17 10:34:53;;;;;;;9.90;8.00;;;;;;;2.65;100.00;100458.69;105903;1260;68787;-79
2023/12/17 10:37:22;;;;;;;9.30;7.60;;;;;;;2.67;100.00;100459.77;106020;1260;73108;-83
2023/12/17 10:39:51;;;;;;;10.70;8.00;;;;;;;2.60;100.00;100453.77;107133;1258;60967;-86
2023/12/17 10:42:20;;;;;;;10.50;7.40;;;;;;;2.57;100.00;100452.08;108649;1254;59095;-80
2023/12/17 10:44:49;;;;;;;9.40;7.00;;;;;;;2.61;100.00;100456.86;107648;1254;72598;-86
2023/12/17 10:47:24;;;;;;;10.40;7.20;;;;;;;2.64;100.00;100457.55;106781;1258;70515;-80
2023/12/17 10:49:56;;;;;;;9.00;7.10;;;;;;;2.64;100.00;100456.65;105858;1259;71434;-77
2023/12/17 10:52:24;;;;;;;9.60;7.10;;;;;;;2.60;100.00;100458.14;105670;1255;61356;-79
2023/12/17 10:54:51;;;;;;;8.30;6.70;;;;;;;2.63;100.00;100461.07;105587;1255;60609;-79
2023/12/17 10:58:00;;;;;;;8.30;6.80;;;;;;;2.66;100.00;100459.36;105644;1263;73768;-79
2023/12/17 11:00:29;;;;;;;8.70;7.30;;;;;;;2.64;100.00;100457.15;105763;1259;69987;-79
2023/12/17 11:02:59;;;;;;;8.60;6.90;;;;;;;2.62;100.00;100458.56;106498;1260;71415;-79
2023/12/17 11:05:27;;;;;;;7.70;6.70;;;;;;;2.65;100.00;100452.27;105915;1258;61870;-79
2023/12/17 11:07:55;;;;;;;9.10;6.60;;;;;;;2.68;100.00;100449.90;107637;1255;60356;-79
2023/12/17 11:10:26;;;;;;;8.10;6.40;;;;;;;2.66;100.00;100447.23;108966;1254;75000;-79
2023/12/17 11:12:54;;;;;;;9.10;7.00;;;;;;;2.69;100.00;100446.70;106938;1256;71402;-79